sensor_id;sensor_type;location;lat;lon;timestamp;P1;durP1;ratioP1;P2;durP2;ratioP2
11039;SDS011;5573;49.592;8.662;2022-07-23T00:00:12;132.10;;;125.10;;
11039;SDS011;5573;49.592;8.662;2022-07-23T00:03:00;121.88;;;115.50;;
11039;SDS011;5573;49.592;8.662;2022-07-23T00:05:48;120.03;;;113.80;;
11039;SDS011;5573;49.592;8.662;2022-07-23T00:08:36;128.18;;;121.45;;
11039;SDS011;5573;49.592;8.662;2022-07-23T00:11:24;110.72;;;104.88;;
11039;SDS011;5573;49.592;8.662;2022-07-23T00:14:12;100.95;;;95.68;;
11039;SDS011;5573;49.592;8.662;2022-07-23T00:17:02;106.30;;;100.78;;
11039;SDS011;5573;49.592;8.662;2022-07-23T00:19:50;97.60;;;92.45;;
11039;SDS011;5573;49.592;8.662;2022-07-23T00:22:45;89.20;;;84.43;;
11039;SDS011;5573;49.592;8.662;2022-07-23T00:25:33;85.28;;;80.70;;
11039;SDS011;5573;49.592;8.662;2022-07-23T00:28:21;87.93;;;83.30;;
11039;SDS011;5573;49.592;8.662;2022-07-23T00:31:09;88.43;;;83.68;;
11039;SDS011;5573;49.592;8.662;2022-07-23T00:33:59;80.70;;;76.30;;
11039;SDS011;5573;49.592;8.662;2022-07-23T00:36:48;79.57;;;75.22;;
11039;SDS011;5573;49.592;8.662;2022-07-23T00:39:36;75.13;;;71.00;;
11039;SDS011;5573;49.592;8.662;2022-07-23T00:42:24;76.82;;;72.60;;
11039;SDS011;5573;49.592;8.662;2022-07-23T00:45:12;68.13;;;64.35;;
11039;SDS011;5573;49.592;8.662;2022-07-23T00:48:01;65.85;;;62.25;;
11039;SDS011;5573;49.592;8.662;2022-07-23T00:50:50;73.18;;;69.13;;
11039;SDS011;5573;49.592;8.662;2022-07-23T00:53:38;78.43;;;74.00;;
11039;SDS011;5573;49.592;8.662;2022-07-23T00:56:27;80.63;;;76.20;;
11039;SDS011;5573;49.592;8.662;2022-07-23T00:59:17;88.68;;;83.85;;
11039;SDS011;5573;49.592;8.662;2022-07-23T01:02:05;89.53;;;84.63;;
11039;SDS011;5573;49.592;8.662;2022-07-23T01:04:53;93.30;;;87.90;;
11039;SDS011;5573;49.592;8.662;2022-07-23T01:07:43;85.80;;;81.18;;
11039;SDS011;5573;49.592;8.662;2022-07-23T01:10:32;95.25;;;90.25;;
11039;SDS011;5573;49.592;8.662;2022-07-23T01:13:20;101.53;;;96.10;;
11039;SDS011;5573;49.592;8.662;2022-07-23T01:16:08;93.18;;;88.25;;
11039;SDS011;5573;49.592;8.662;2022-07-23T01:18:57;96.93;;;91.88;;
11039;SDS011;5573;49.592;8.662;2022-07-23T01:21:47;95.57;;;90.50;;
11039;SDS011;5573;49.592;8.662;2022-07-23T01:24:38;100.72;;;95.32;;
11039;SDS011;5573;49.592;8.662;2022-07-23T01:27:26;97.68;;;92.50;;
11039;SDS011;5573;49.592;8.662;2022-07-23T01:30:19;100.93;;;95.63;;
11039;SDS011;5573;49.592;8.662;2022-07-23T01:33:08;97.82;;;92.70;;
11039;SDS011;5573;49.592;8.662;2022-07-23T01:35:56;104.40;;;98.90;;
11039;SDS011;5573;49.592;8.662;2022-07-23T01:38:45;108.35;;;102.60;;
11039;SDS011;5573;49.592;8.662;2022-07-23T01:41:35;107.32;;;101.68;;
11039;SDS011;5573;49.592;8.662;2022-07-23T01:44:25;108.68;;;103.03;;
11039;SDS011;5573;49.592;8.662;2022-07-23T01:47:13;109.97;;;104.20;;
11039;SDS011;5573;49.592;8.662;2022-07-23T01:50:01;107.47;;;101.90;;
11039;SDS011;5573;49.592;8.662;2022-07-23T01:53:12;116.70;;;110.57;;
11039;SDS011;5573;49.592;8.662;2022-07-23T01:56:01;118.95;;;112.70;;
11039;SDS011;5573;49.592;8.662;2022-07-23T01:58:51;122.32;;;115.95;;
11039;SDS011;5573;49.592;8.662;2022-07-23T02:01:40;117.65;;;111.45;;
11039;SDS011;5573;49.592;8.662;2022-07-23T02:04:28;123.00;;;116.55;;
11039;SDS011;5573;49.592;8.662;2022-07-23T02:07:17;140.30;;;132.77;;
11039;SDS011;5573;49.592;8.662;2022-07-23T02:10:05;147.75;;;139.95;;
11039;SDS011;5573;49.592;8.662;2022-07-23T02:12:56;149.60;;;141.73;;
11039;SDS011;5573;49.592;8.662;2022-07-23T02:15:46;161.68;;;153.07;;
11039;SDS011;5573;49.592;8.662;2022-07-23T02:18:34;171.10;;;162.00;;
11039;SDS011;5573;49.592;8.662;2022-07-23T02:21:22;170.50;;;161.55;;
11039;SDS011;5573;49.592;8.662;2022-07-23T02:24:12;174.07;;;164.85;;
11039;SDS011;5573;49.592;8.662;2022-07-23T02:27:01;193.02;;;182.73;;
11039;SDS011;5573;49.592;8.662;2022-07-23T02:29:51;188.65;;;178.55;;
11039;SDS011;5573;49.592;8.662;2022-07-23T02:32:41;177.55;;;168.00;;
11039;SDS011;5573;49.592;8.662;2022-07-23T02:35:30;199.13;;;188.40;;
11039;SDS011;5573;49.592;8.662;2022-07-23T02:38:20;205.30;;;194.48;;
11039;SDS011;5573;49.592;8.662;2022-07-23T02:41:09;208.23;;;197.07;;
11039;SDS011;5573;49.592;8.662;2022-07-23T02:43:57;218.95;;;207.27;;
11039;SDS011;5573;49.592;8.662;2022-07-23T02:46:46;228.20;;;216.02;;
11039;SDS011;5573;49.592;8.662;2022-07-23T02:49:35;239.23;;;226.35;;
11039;SDS011;5573;49.592;8.662;2022-07-23T02:52:25;237.85;;;225.13;;
11039;SDS011;5573;49.592;8.662;2022-07-23T02:55:13;221.68;;;209.75;;
11039;SDS011;5573;49.592;8.662;2022-07-23T02:58:02;250.30;;;237.05;;
11039;SDS011;5573;49.592;8.662;2022-07-23T03:00:50;241.88;;;228.93;;
11039;SDS011;5573;49.592;8.662;2022-07-23T03:03:38;228.93;;;216.73;;
11039;SDS011;5573;49.592;8.662;2022-07-23T03:06:28;223.68;;;211.57;;
11039;SDS011;5573;49.592;8.662;2022-07-23T03:09:16;221.35;;;209.45;;
11039;SDS011;5573;49.592;8.662;2022-07-23T03:12:04;214.65;;;203.15;;
11039;SDS011;5573;49.592;8.662;2022-07-23T03:14:59;225.57;;;213.30;;
11039;SDS011;5573;49.592;8.662;2022-07-23T03:17:47;224.23;;;212.23;;
11039;SDS011;5573;49.592;8.662;2022-07-23T03:20:35;221.82;;;209.98;;
11039;SDS011;5573;49.592;8.662;2022-07-23T03:23:25;234.48;;;221.90;;
11039;SDS011;5573;49.592;8.662;2022-07-23T03:26:13;245.85;;;232.85;;
11039;SDS011;5573;49.592;8.662;2022-07-23T03:29:02;234.82;;;222.32;;
11039;SDS011;5573;49.592;8.662;2022-07-23T03:31:51;226.88;;;214.90;;
11039;SDS011;5573;49.592;8.662;2022-07-23T03:34:39;246.95;;;233.88;;
11039;SDS011;5573;49.592;8.662;2022-07-23T03:37:28;253.98;;;240.75;;
11039;SDS011;5573;49.592;8.662;2022-07-23T03:40:19;252.23;;;239.00;;
11039;SDS011;5573;49.592;8.662;2022-07-23T03:43:07;264.65;;;250.40;;
11039;SDS011;5573;49.592;8.662;2022-07-23T03:45:56;266.10;;;252.05;;
11039;SDS011;5573;49.592;8.662;2022-07-23T03:48:44;258.50;;;244.75;;
11039;SDS011;5573;49.592;8.662;2022-07-23T03:51:33;261.25;;;247.50;;
11039;SDS011;5573;49.592;8.662;2022-07-23T03:54:22;270.95;;;256.58;;
11039;SDS011;5573;49.592;8.662;2022-07-23T03:57:11;284.92;;;269.90;;
11039;SDS011;5573;49.592;8.662;2022-07-23T04:00:00;276.58;;;262.10;;
11039;SDS011;5573;49.592;8.662;2022-07-23T04:02:59;276.23;;;261.73;;
11039;SDS011;5573;49.592;8.662;2022-07-23T04:05:48;290.48;;;275.38;;
11039;SDS011;5573;49.592;8.662;2022-07-23T04:08:36;289.80;;;274.60;;
11039;SDS011;5573;49.592;8.662;2022-07-23T04:11:24;299.70;;;283.75;;
11039;SDS011;5573;49.592;8.662;2022-07-23T04:14:13;267.58;;;253.45;;
11039;SDS011;5573;49.592;8.662;2022-07-23T04:17:02;287.25;;;271.85;;
11039;SDS011;5573;49.592;8.662;2022-07-23T04:19:50;305.85;;;289.38;;
11039;SDS011;5573;49.592;8.662;2022-07-23T04:22:42;316.48;;;299.50;;
11039;SDS011;5573;49.592;8.662;2022-07-23T04:25:31;348.58;;;329.95;;
11039;SDS011;5573;49.592;8.662;2022-07-23T04:28:19;348.25;;;329.08;;
11039;SDS011;5573;49.592;8.662;2022-07-23T04:31:09;354.85;;;335.42;;
11039;SDS011;5573;49.592;8.662;2022-07-23T04:33:58;374.65;;;354.23;;
11039;SDS011;5573;49.592;8.662;2022-07-23T04:36:47;367.20;;;346.88;;
11039;SDS011;5573;49.592;8.662;2022-07-23T04:39:35;387.63;;;366.10;;
11039;SDS011;5573;49.592;8.662;2022-07-23T04:42:23;389.25;;;367.42;;
11039;SDS011;5573;49.592;8.662;2022-07-23T04:45:11;379.20;;;358.05;;
11039;SDS011;5573;49.592;8.662;2022-07-23T04:48:02;376.42;;;355.48;;
11039;SDS011;5573;49.592;8.662;2022-07-23T04:50:51;347.45;;;328.27;;
11039;SDS011;5573;49.592;8.662;2022-07-23T04:53:45;361.85;;;341.83;;
11039;SDS011;5573;49.592;8.662;2022-07-23T04:56:33;356.25;;;336.90;;
11039;SDS011;5573;49.592;8.662;2022-07-23T04:59:21;367.35;;;347.20;;
11039;SDS011;5573;49.592;8.662;2022-07-23T05:02:15;374.58;;;353.98;;
11039;SDS011;5573;49.592;8.662;2022-07-23T05:05:05;399.30;;;377.10;;
11039;SDS011;5573;49.592;8.662;2022-07-23T05:07:54;378.50;;;357.15;;
11039;SDS011;5573;49.592;8.662;2022-07-23T05:10:42;385.52;;;364.00;;
11039;SDS011;5573;49.592;8.662;2022-07-23T05:13:30;371.27;;;350.08;;
11039;SDS011;5573;49.592;8.662;2022-07-23T05:16:18;379.90;;;358.05;;
11039;SDS011;5573;49.592;8.662;2022-07-23T05:19:07;373.30;;;351.88;;
11039;SDS011;5573;49.592;8.662;2022-07-23T05:21:57;365.35;;;344.35;;
11039;SDS011;5573;49.592;8.662;2022-07-23T05:24:45;353.30;;;332.83;;
11039;SDS011;5573;49.592;8.662;2022-07-23T05:27:33;367.92;;;345.90;;
11039;SDS011;5573;49.592;8.662;2022-07-23T05:30:22;346.70;;;326.23;;
11039;SDS011;5573;49.592;8.662;2022-07-23T05:33:15;351.40;;;330.77;;
11039;SDS011;5573;49.592;8.662;2022-07-23T05:36:05;357.15;;;336.27;;
11039;SDS011;5573;49.592;8.662;2022-07-23T05:39:01;337.08;;;317.20;;
11039;SDS011;5573;49.592;8.662;2022-07-23T05:41:53;320.00;;;301.27;;
11039;SDS011;5573;49.592;8.662;2022-07-23T05:44:43;318.13;;;299.40;;
11039;SDS011;5573;49.592;8.662;2022-07-23T05:47:38;323.30;;;304.17;;
11039;SDS011;5573;49.592;8.662;2022-07-23T05:50:28;331.08;;;311.80;;
11039;SDS011;5573;49.592;8.662;2022-07-23T05:53:24;340.40;;;320.42;;
11039;SDS011;5573;49.592;8.662;2022-07-23T05:56:46;332.75;;;313.33;;
11039;SDS011;5573;49.592;8.662;2022-07-23T05:59:34;346.55;;;326.25;;
11039;SDS011;5573;49.592;8.662;2022-07-23T06:02:23;344.25;;;324.25;;
11039;SDS011;5573;49.592;8.662;2022-07-23T06:05:11;350.27;;;329.75;;
11039;SDS011;5573;49.592;8.662;2022-07-23T06:07:59;368.75;;;347.77;;
11039;SDS011;5573;49.592;8.662;2022-07-23T06:10:48;359.52;;;338.88;;
11039;SDS011;5573;49.592;8.662;2022-07-23T06:13:38;348.27;;;328.60;;
11039;SDS011;5573;49.592;8.662;2022-07-23T06:16:26;356.08;;;335.80;;
11039;SDS011;5573;49.592;8.662;2022-07-23T06:19:14;351.27;;;331.48;;
11039;SDS011;5573;49.592;8.662;2022-07-23T06:22:05;362.13;;;341.40;;
11039;SDS011;5573;49.592;8.662;2022-07-23T06:24:53;356.00;;;336.23;;
11039;SDS011;5573;49.592;8.662;2022-07-23T06:27:41;346.35;;;327.40;;
11039;SDS011;5573;49.592;8.662;2022-07-23T06:30:32;359.52;;;339.42;;
11039;SDS011;5573;49.592;8.662;2022-07-23T06:33:22;354.25;;;334.83;;
11039;SDS011;5573;49.592;8.662;2022-07-23T06:36:10;345.75;;;326.83;;
11039;SDS011;5573;49.592;8.662;2022-07-23T06:39:00;337.33;;;318.90;;
11039;SDS011;5573;49.592;8.662;2022-07-23T06:41:49;334.35;;;316.20;;
11039;SDS011;5573;49.592;8.662;2022-07-23T06:44:55;321.58;;;303.85;;
11039;SDS011;5573;49.592;8.662;2022-07-23T06:47:45;317.85;;;300.50;;
11039;SDS011;5573;49.592;8.662;2022-07-23T06:50:33;327.52;;;309.95;;
11039;SDS011;5573;49.592;8.662;2022-07-23T06:53:21;313.20;;;296.20;;
11039;SDS011;5573;49.592;8.662;2022-07-23T06:56:09;315.65;;;298.13;;
11039;SDS011;5573;49.592;8.662;2022-07-23T06:58:59;319.55;;;302.30;;
11039;SDS011;5573;49.592;8.662;2022-07-23T07:01:47;327.58;;;309.75;;
11039;SDS011;5573;49.592;8.662;2022-07-23T07:04:37;322.08;;;304.42;;
11039;SDS011;5573;49.592;8.662;2022-07-23T07:07:25;323.17;;;305.52;;
11039;SDS011;5573;49.592;8.662;2022-07-23T07:10:13;309.75;;;292.88;;
11039;SDS011;5573;49.592;8.662;2022-07-23T07:13:02;328.80;;;310.70;;
11039;SDS011;5573;49.592;8.662;2022-07-23T07:15:50;330.52;;;312.52;;
11039;SDS011;5573;49.592;8.662;2022-07-23T07:18:39;325.83;;;307.92;;
11039;SDS011;5573;49.592;8.662;2022-07-23T07:21:28;324.27;;;306.65;;
11039;SDS011;5573;49.592;8.662;2022-07-23T07:24:16;313.02;;;295.98;;
11039;SDS011;5573;49.592;8.662;2022-07-23T07:27:04;329.90;;;311.48;;
11039;SDS011;5573;49.592;8.662;2022-07-23T07:29:52;313.27;;;295.88;;
11039;SDS011;5573;49.592;8.662;2022-07-23T07:32:41;304.25;;;287.55;;
11039;SDS011;5573;49.592;8.662;2022-07-23T07:35:45;298.45;;;281.92;;
11039;SDS011;5573;49.592;8.662;2022-07-23T07:38:34;313.02;;;295.60;;
11039;SDS011;5573;49.592;8.662;2022-07-23T07:41:22;296.20;;;279.75;;
11039;SDS011;5573;49.592;8.662;2022-07-23T07:44:12;296.25;;;279.83;;
11039;SDS011;5573;49.592;8.662;2022-07-23T07:47:00;298.63;;;282.38;;
11039;SDS011;5573;49.592;8.662;2022-07-23T07:49:48;299.25;;;283.02;;
11039;SDS011;5573;49.592;8.662;2022-07-23T07:52:36;298.58;;;282.73;;
11039;SDS011;5573;49.592;8.662;2022-07-23T07:55:26;274.40;;;259.70;;
11039;SDS011;5573;49.592;8.662;2022-07-23T07:58:15;262.98;;;248.95;;
11039;SDS011;5573;49.592;8.662;2022-07-23T08:01:04;255.77;;;242.20;;
11039;SDS011;5573;49.592;8.662;2022-07-23T08:03:53;227.40;;;215.52;;
11039;SDS011;5573;49.592;8.662;2022-07-23T08:06:41;210.38;;;199.45;;
11039;SDS011;5573;49.592;8.662;2022-07-23T08:09:29;202.77;;;192.23;;
11039;SDS011;5573;49.592;8.662;2022-07-23T08:12:19;202.27;;;191.75;;
11039;SDS011;5573;49.592;8.662;2022-07-23T08:15:07;195.27;;;184.98;;
11039;SDS011;5573;49.592;8.662;2022-07-23T08:18:00;173.15;;;163.80;;
11039;SDS011;5573;49.592;8.662;2022-07-23T08:20:48;170.07;;;160.95;;
11039;SDS011;5573;49.592;8.662;2022-07-23T08:23:36;151.20;;;143.10;;
11039;SDS011;5573;49.592;8.662;2022-07-23T08:26:24;147.48;;;139.65;;
11039;SDS011;5573;49.592;8.662;2022-07-23T08:29:13;138.55;;;131.15;;
11039;SDS011;5573;49.592;8.662;2022-07-23T08:32:02;130.27;;;123.45;;
11039;SDS011;5573;49.592;8.662;2022-07-23T08:35:10;142.23;;;134.57;;
11039;SDS011;5573;49.592;8.662;2022-07-23T08:37:58;143.40;;;135.63;;
11039;SDS011;5573;49.592;8.662;2022-07-23T08:40:48;151.88;;;143.75;;
11039;SDS011;5573;49.592;8.662;2022-07-23T08:43:38;150.85;;;142.68;;
11039;SDS011;5573;49.592;8.662;2022-07-23T08:46:30;140.90;;;133.40;;
11039;SDS011;5573;49.592;8.662;2022-07-23T08:49:19;136.50;;;129.38;;
11039;SDS011;5573;49.592;8.662;2022-07-23T08:52:10;124.82;;;118.25;;
11039;SDS011;5573;49.592;8.662;2022-07-23T08:54:59;112.18;;;106.30;;
11039;SDS011;5573;49.592;8.662;2022-07-23T08:57:48;104.70;;;99.00;;
11039;SDS011;5573;49.592;8.662;2022-07-23T09:00:39;114.82;;;108.60;;
11039;SDS011;5573;49.592;8.662;2022-07-23T09:03:29;101.30;;;95.88;;
11039;SDS011;5573;49.592;8.662;2022-07-23T09:06:19;89.35;;;84.63;;
11039;SDS011;5573;49.592;8.662;2022-07-23T09:09:16;87.03;;;82.38;;
11039;SDS011;5573;49.592;8.662;2022-07-23T09:12:06;55.70;;;52.78;;
11039;SDS011;5573;49.592;8.662;2022-07-23T09:14:55;46.58;;;44.17;;
11039;SDS011;5573;49.592;8.662;2022-07-23T09:17:51;37.35;;;35.25;;
11039;SDS011;5573;49.592;8.662;2022-07-23T09:20:41;35.60;;;33.70;;
11039;SDS011;5573;49.592;8.662;2022-07-23T09:23:36;33.15;;;31.35;;
11039;SDS011;5573;49.592;8.662;2022-07-23T09:26:29;24.45;;;23.15;;
11039;SDS011;5573;49.592;8.662;2022-07-23T09:29:23;20.23;;;19.13;;
11039;SDS011;5573;49.592;8.662;2022-07-23T09:32:13;24.30;;;23.00;;
11039;SDS011;5573;49.592;8.662;2022-07-23T09:35:01;22.77;;;21.48;;
11039;SDS011;5573;49.592;8.662;2022-07-23T09:38:01;19.15;;;18.05;;
11039;SDS011;5573;49.592;8.662;2022-07-23T09:41:04;20.20;;;19.10;;
11039;SDS011;5573;49.592;8.662;2022-07-23T09:43:54;18.98;;;17.98;;
11039;SDS011;5573;49.592;8.662;2022-07-23T09:46:44;16.73;;;15.82;;
11039;SDS011;5573;49.592;8.662;2022-07-23T09:49:33;12.43;;;11.73;;
11039;SDS011;5573;49.592;8.662;2022-07-23T09:52:25;10.40;;;9.80;;
11039;SDS011;5573;49.592;8.662;2022-07-23T09:55:21;9.63;;;9.02;;
11039;SDS011;5573;49.592;8.662;2022-07-23T09:58:21;9.13;;;8.63;;
11039;SDS011;5573;49.592;8.662;2022-07-23T10:01:12;9.43;;;8.82;;
11039;SDS011;5573;49.592;8.662;2022-07-23T10:04:01;9.82;;;9.23;;
11039;SDS011;5573;49.592;8.662;2022-07-23T10:07:11;9.32;;;8.82;;
11039;SDS011;5573;49.592;8.662;2022-07-23T10:10:21;10.60;;;10.00;;
11039;SDS011;5573;49.592;8.662;2022-07-23T10:13:49;10.43;;;9.82;;
11039;SDS011;5573;49.592;8.662;2022-07-23T10:16:41;10.98;;;10.27;;
11039;SDS011;5573;49.592;8.662;2022-07-23T10:19:30;11.55;;;10.85;;
11039;SDS011;5573;49.592;8.662;2022-07-23T10:22:19;10.23;;;9.63;;
11039;SDS011;5573;49.592;8.662;2022-07-23T10:25:12;10.25;;;9.65;;
11039;SDS011;5573;49.592;8.662;2022-07-23T10:28:15;11.20;;;10.60;;
11039;SDS011;5573;49.592;8.662;2022-07-23T10:31:26;11.23;;;10.35;;
11039;SDS011;5573;49.592;8.662;2022-07-23T10:34:44;10.90;;;10.30;;
11039;SDS011;5573;49.592;8.662;2022-07-23T10:37:41;11.30;;;10.68;;
11039;SDS011;5573;49.592;8.662;2022-07-23T10:40:31;11.27;;;10.57;;
11039;SDS011;5573;49.592;8.662;2022-07-23T10:43:20;11.85;;;11.07;;
11039;SDS011;5573;49.592;8.662;2022-07-23T10:46:21;10.68;;;10.07;;
11039;SDS011;5573;49.592;8.662;2022-07-23T10:49:26;11.50;;;10.80;;
11039;SDS011;5573;49.592;8.662;2022-07-23T10:52:19;10.43;;;9.82;;
11039;SDS011;5573;49.592;8.662;2022-07-23T11:01:36;9.15;;;8.63;;
11039;SDS011;5573;49.592;8.662;2022-07-23T11:07:36;9.10;;;8.50;;
11039;SDS011;5573;49.592;8.662;2022-07-23T11:10:46;8.80;;;8.27;;
11039;SDS011;5573;49.592;8.662;2022-07-23T11:13:40;8.45;;;8.00;;
11039;SDS011;5573;49.592;8.662;2022-07-23T11:16:31;9.25;;;8.70;;
11039;SDS011;5573;49.592;8.662;2022-07-23T11:22:56;9.43;;;8.82;;
11039;SDS011;5573;49.592;8.662;2022-07-23T11:25:45;9.00;;;8.40;;
11039;SDS011;5573;49.592;8.662;2022-07-23T11:28:34;9.98;;;9.27;;
11039;SDS011;5573;49.592;8.662;2022-07-23T11:31:22;9.50;;;8.90;;
11039;SDS011;5573;49.592;8.662;2022-07-23T11:34:31;8.93;;;8.43;;
11039;SDS011;5573;49.592;8.662;2022-07-23T11:40:28;9.30;;;8.73;;
11039;SDS011;5573;49.592;8.662;2022-07-23T11:43:17;9.07;;;8.57;;
11039;SDS011;5573;49.592;8.662;2022-07-23T11:46:09;9.50;;;9.00;;
11039;SDS011;5573;49.592;8.662;2022-07-23T11:49:01;9.98;;;9.38;;
11039;SDS011;5573;49.592;8.662;2022-07-23T11:54:59;10.07;;;9.48;;
11039;SDS011;5573;49.592;8.662;2022-07-23T11:57:50;9.45;;;8.90;;
11039;SDS011;5573;49.592;8.662;2022-07-23T12:00:40;10.57;;;9.98;;
11039;SDS011;5573;49.592;8.662;2022-07-23T12:03:29;10.73;;;10.13;;
11039;SDS011;5573;49.592;8.662;2022-07-23T12:06:17;10.80;;;10.20;;
11039;SDS011;5573;49.592;8.662;2022-07-23T12:09:07;11.93;;;11.23;;
11039;SDS011;5573;49.592;8.662;2022-07-23T12:11:58;12.40;;;11.50;;
11039;SDS011;5573;49.592;8.662;2022-07-23T12:14:47;12.20;;;11.40;;
11039;SDS011;5573;49.592;8.662;2022-07-23T12:17:37;12.63;;;11.93;;
11039;SDS011;5573;49.592;8.662;2022-07-23T12:20:27;12.73;;;12.02;;
11039;SDS011;5573;49.592;8.662;2022-07-23T12:23:18;12.90;;;12.10;;
11039;SDS011;5573;49.592;8.662;2022-07-23T12:26:08;12.80;;;12.07;;
11039;SDS011;5573;49.592;8.662;2022-07-23T12:28:58;13.25;;;12.55;;
11039;SDS011;5573;49.592;8.662;2022-07-23T12:31:46;12.60;;;11.88;;
11039;SDS011;5573;49.592;8.662;2022-07-23T12:34:34;13.20;;;12.50;;
11039;SDS011;5573;49.592;8.662;2022-07-23T12:37:28;13.35;;;12.55;;
11039;SDS011;5573;49.592;8.662;2022-07-23T12:40:19;13.38;;;12.57;;
11039;SDS011;5573;49.592;8.662;2022-07-23T12:43:19;13.27;;;12.48;;
11039;SDS011;5573;49.592;8.662;2022-07-23T12:46:11;13.48;;;12.70;;
11039;SDS011;5573;49.592;8.662;2022-07-23T12:49:01;12.90;;;12.20;;
11039;SDS011;5573;49.592;8.662;2022-07-23T12:51:50;13.63;;;12.75;;
11039;SDS011;5573;49.592;8.662;2022-07-23T12:54:38;13.55;;;12.77;;
11039;SDS011;5573;49.592;8.662;2022-07-23T13:03:44;13.52;;;12.65;;
11039;SDS011;5573;49.592;8.662;2022-07-23T13:06:45;12.77;;;12.00;;
11039;SDS011;5573;49.592;8.662;2022-07-23T13:09:35;12.40;;;11.70;;
11039;SDS011;5573;49.592;8.662;2022-07-23T13:12:28;11.48;;;10.85;;
11039;SDS011;5573;49.592;8.662;2022-07-23T13:15:16;11.50;;;10.80;;
11039;SDS011;5573;49.592;8.662;2022-07-23T13:18:08;11.77;;;11.07;;
11039;SDS011;5573;49.592;8.662;2022-07-23T13:20:57;9.48;;;8.80;;
11039;SDS011;5573;49.592;8.662;2022-07-23T13:23:46;9.27;;;8.68;;
11039;SDS011;5573;49.592;8.662;2022-07-23T13:26:34;8.15;;;7.65;;
11039;SDS011;5573;49.592;8.662;2022-07-23T13:29:23;7.43;;;7.03;;
11039;SDS011;5573;49.592;8.662;2022-07-23T13:32:11;7.07;;;6.55;;
11039;SDS011;5573;49.592;8.662;2022-07-23T13:35:01;6.82;;;6.43;;
11039;SDS011;5573;49.592;8.662;2022-07-23T13:37:49;7.35;;;6.85;;
11039;SDS011;5573;49.592;8.662;2022-07-23T13:40:38;8.32;;;7.82;;
11039;SDS011;5573;49.592;8.662;2022-07-23T13:43:28;7.43;;;6.85;;
11039;SDS011;5573;49.592;8.662;2022-07-23T13:46:22;6.63;;;6.22;;
11039;SDS011;5573;49.592;8.662;2022-07-23T13:49:10;6.97;;;6.47;;
11039;SDS011;5573;49.592;8.662;2022-07-23T13:52:01;7.20;;;6.65;;
11039;SDS011;5573;49.592;8.662;2022-07-23T13:54:51;6.65;;;6.25;;
11039;SDS011;5573;49.592;8.662;2022-07-23T13:57:39;6.57;;;6.18;;
11039;SDS011;5573;49.592;8.662;2022-07-23T14:00:29;7.28;;;6.78;;
11039;SDS011;5573;49.592;8.662;2022-07-23T14:03:38;7.20;;;6.70;;
11039;SDS011;5573;49.592;8.662;2022-07-23T14:06:27;7.25;;;6.85;;
11039;SDS011;5573;49.592;8.662;2022-07-23T14:09:20;8.20;;;7.70;;
11039;SDS011;5573;49.592;8.662;2022-07-23T14:12:11;7.35;;;6.95;;
11039;SDS011;5573;49.592;8.662;2022-07-23T14:15:03;6.80;;;6.40;;
11039;SDS011;5573;49.592;8.662;2022-07-23T14:17:58;6.72;;;6.32;;
11039;SDS011;5573;49.592;8.662;2022-07-23T14:20:46;6.50;;;6.07;;
11039;SDS011;5573;49.592;8.662;2022-07-23T14:23:34;5.80;;;5.50;;
11039;SDS011;5573;49.592;8.662;2022-07-23T14:26:24;6.35;;;5.95;;
11039;SDS011;5573;49.592;8.662;2022-07-23T14:29:12;6.28;;;5.78;;
11039;SDS011;5573;49.592;8.662;2022-07-23T14:32:00;6.50;;;6.10;;
11039;SDS011;5573;49.592;8.662;2022-07-23T14:34:49;6.13;;;5.78;;
11039;SDS011;5573;49.592;8.662;2022-07-23T14:37:38;6.97;;;6.53;;
11039;SDS011;5573;49.592;8.662;2022-07-23T14:40:28;6.63;;;6.22;;
11039;SDS011;5573;49.592;8.662;2022-07-23T14:43:18;6.90;;;6.40;;
11039;SDS011;5573;49.592;8.662;2022-07-23T14:46:06;6.75;;;6.35;;
11039;SDS011;5573;49.592;8.662;2022-07-23T14:48:54;7.38;;;6.75;;
11039;SDS011;5573;49.592;8.662;2022-07-23T14:51:43;6.72;;;6.32;;
11039;SDS011;5573;49.592;8.662;2022-07-23T14:54:32;6.43;;;6.03;;
11039;SDS011;5573;49.592;8.662;2022-07-23T14:57:20;6.60;;;6.20;;
11039;SDS011;5573;49.592;8.662;2022-07-23T15:00:14;6.32;;;5.93;;
11039;SDS011;5573;49.592;8.662;2022-07-23T15:03:02;6.53;;;6.13;;
11039;SDS011;5573;49.592;8.662;2022-07-23T15:05:51;6.10;;;5.78;;
11039;SDS011;5573;49.592;8.662;2022-07-23T15:08:39;6.13;;;5.82;;
11039;SDS011;5573;49.592;8.662;2022-07-23T15:11:27;6.72;;;6.32;;
11039;SDS011;5573;49.592;8.662;2022-07-23T15:14:20;7.20;;;6.80;;
11039;SDS011;5573;49.592;8.662;2022-07-23T15:17:15;6.90;;;6.50;;
11039;SDS011;5573;49.592;8.662;2022-07-23T15:20:03;7.35;;;6.85;;
11039;SDS011;5573;49.592;8.662;2022-07-23T15:22:54;6.88;;;6.47;;
11039;SDS011;5573;49.592;8.662;2022-07-23T15:25:42;7.50;;;7.00;;
11039;SDS011;5573;49.592;8.662;2022-07-23T15:28:36;7.53;;;7.03;;
11039;SDS011;5573;49.592;8.662;2022-07-23T15:31:24;7.40;;;6.90;;
11039;SDS011;5573;49.592;8.662;2022-07-23T15:34:16;7.30;;;6.90;;
11039;SDS011;5573;49.592;8.662;2022-07-23T15:37:04;7.47;;;6.97;;
11039;SDS011;5573;49.592;8.662;2022-07-23T15:39:57;7.60;;;7.10;;
11039;SDS011;5573;49.592;8.662;2022-07-23T15:42:46;7.35;;;6.95;;
11039;SDS011;5573;49.592;8.662;2022-07-23T15:45:34;7.57;;;7.18;;
11039;SDS011;5573;49.592;8.662;2022-07-23T15:48:23;7.30;;;6.90;;
11039;SDS011;5573;49.592;8.662;2022-07-23T15:51:13;8.15;;;7.55;;
11039;SDS011;5573;49.592;8.662;2022-07-23T15:54:03;8.18;;;7.57;;
11039;SDS011;5573;49.592;8.662;2022-07-23T15:56:52;8.48;;;7.97;;
11039;SDS011;5573;49.592;8.662;2022-07-23T15:59:41;8.13;;;7.63;;
11039;SDS011;5573;49.592;8.662;2022-07-23T16:02:29;7.25;;;6.85;;
11039;SDS011;5573;49.592;8.662;2022-07-23T16:05:18;6.93;;;6.35;;
11039;SDS011;5573;49.592;8.662;2022-07-23T16:08:07;6.55;;;6.15;;
11039;SDS011;5573;49.592;8.662;2022-07-23T16:10:55;6.43;;;6.03;;
11039;SDS011;5573;49.592;8.662;2022-07-23T16:13:44;6.05;;;5.65;;
11039;SDS011;5573;49.592;8.662;2022-07-23T16:16:33;5.65;;;5.32;;
11039;SDS011;5573;49.592;8.662;2022-07-23T16:19:21;5.80;;;5.38;;
11039;SDS011;5573;49.592;8.662;2022-07-23T16:22:09;5.72;;;5.32;;
11039;SDS011;5573;49.592;8.662;2022-07-23T16:25:03;5.55;;;5.22;;
11039;SDS011;5573;49.592;8.662;2022-07-23T16:27:52;6.18;;;5.78;;
11039;SDS011;5573;49.592;8.662;2022-07-23T16:30:41;5.88;;;5.57;;
11039;SDS011;5573;49.592;8.662;2022-07-23T16:33:29;6.28;;;5.78;;
11039;SDS011;5573;49.592;8.662;2022-07-23T16:36:17;6.32;;;5.93;;
11039;SDS011;5573;49.592;8.662;2022-07-23T16:39:09;5.90;;;5.50;;
11039;SDS011;5573;49.592;8.662;2022-07-23T16:41:59;5.95;;;5.55;;
11039;SDS011;5573;49.592;8.662;2022-07-23T16:44:47;6.22;;;5.82;;
11039;SDS011;5573;49.592;8.662;2022-07-23T16:47:36;5.85;;;5.55;;
11039;SDS011;5573;49.592;8.662;2022-07-23T16:50:24;6.63;;;6.07;;
11039;SDS011;5573;49.592;8.662;2022-07-23T16:53:12;6.28;;;5.85;;
11039;SDS011;5573;49.592;8.662;2022-07-23T16:56:01;6.20;;;5.78;;
11039;SDS011;5573;49.592;8.662;2022-07-23T16:58:50;6.00;;;5.60;;
11039;SDS011;5573;49.592;8.662;2022-07-23T17:01:39;6.50;;;6.05;;
11039;SDS011;5573;49.592;8.662;2022-07-23T17:04:27;6.10;;;5.70;;
11039;SDS011;5573;49.592;8.662;2022-07-23T17:07:15;6.10;;;5.70;;
11039;SDS011;5573;49.592;8.662;2022-07-23T17:10:04;6.28;;;5.78;;
11039;SDS011;5573;49.592;8.662;2022-07-23T17:12:54;6.85;;;6.45;;